createdAt,value
2023-02-13T00:02:31.301Z,7.00
2023-02-13T00:05:35.592Z,7.00
2023-02-13T00:08:38.758Z,7.00
2023-02-13T00:11:41.843Z,7.00
2023-02-13T00:14:44.819Z,7.10
2023-02-13T00:17:47.956Z,7.00
2023-02-13T00:21:00.880Z,7.00
2023-02-13T00:24:03.918Z,7.00
2023-02-13T00:27:06.816Z,7.00
2023-02-13T00:30:10.638Z,7.00
2023-02-13T00:33:13.551Z,7.00
2023-02-13T00:36:19.583Z,7.00
2023-02-13T00:39:22.543Z,7.00
2023-02-13T00:42:26.618Z,7.00
2023-02-13T00:45:29.829Z,7.00
2023-02-13T00:48:34.916Z,6.90
2023-02-13T00:51:39.492Z,6.90
2023-02-13T00:54:42.642Z,6.90
2023-02-13T00:57:45.788Z,6.80
2023-02-13T01:00:48.980Z,6.70
2023-02-13T01:03:51.922Z,6.70
2023-02-13T01:06:56.211Z,6.80
2023-02-13T01:09:59.204Z,6.80
2023-02-13T01:13:02.591Z,6.80
2023-02-13T01:16:05.758Z,6.80
2023-02-13T01:19:08.785Z,6.90
2023-02-13T01:22:13.127Z,6.80
2023-02-13T01:25:16.082Z,6.80
2023-02-13T01:28:19.132Z,6.80
2023-02-13T01:31:22.269Z,6.80
2023-02-13T01:34:25.379Z,6.70
2023-02-13T01:37:29.665Z,6.70
2023-02-13T01:40:32.958Z,6.70
2023-02-13T01:43:51.684Z,6.70
2023-02-13T01:46:54.729Z,6.70
2023-02-13T01:50:06.514Z,6.70
2023-02-13T01:53:13.548Z,6.70
2023-02-13T01:56:22.490Z,6.70
2023-02-13T01:59:30.527Z,6.70
2023-02-13T02:02:38.885Z,6.70
2023-02-13T02:05:43.048Z,6.70
2023-02-13T02:08:50.134Z,6.70
2023-02-13T02:11:57.325Z,6.70
2023-02-13T02:15:02.574Z,6.70
2023-02-13T02:18:08.248Z,6.60
2023-02-13T02:21:46.933Z,6.60
2023-02-13T02:25:16.281Z,6.60
2023-02-13T02:28:40.354Z,6.70
2023-02-13T02:32:08.441Z,6.70
2023-02-13T02:35:20.749Z,6.70
2023-02-13T02:38:39.033Z,6.70
2023-02-13T02:41:58.897Z,6.70
2023-02-13T02:45:09.903Z,6.70
2023-02-13T02:48:40.673Z,6.70
2023-02-13T02:51:54.538Z,6.70
2023-02-13T02:55:08.183Z,6.70
2023-02-13T02:58:34.728Z,6.70
2023-02-13T03:01:56.278Z,6.70
2023-02-13T03:05:19.964Z,6.70
2023-02-13T03:08:42.984Z,6.60
2023-02-13T03:12:08.115Z,6.60
2023-02-13T03:15:11.477Z,6.60
2023-02-13T03:18:31.993Z,6.60
2023-02-13T03:22:05.234Z,6.50
2023-02-13T03:25:13.521Z,6.50
2023-02-13T03:28:40.999Z,6.60
2023-02-13T03:31:54.048Z,6.60
2023-02-13T03:35:28.123Z,6.60
2023-02-13T03:38:41.188Z,6.60
2023-02-13T03:41:49.737Z,6.60
2023-02-13T03:45:11.889Z,6.60
2023-02-13T03:48:31.643Z,6.50
2023-02-13T03:51:39.243Z,6.50
2023-02-13T03:55:04.508Z,6.60
2023-02-13T03:58:29.899Z,6.60
2023-02-13T04:01:37.111Z,6.70
2023-02-13T04:04:49.888Z,6.60
2023-02-13T04:07:52.897Z,6.60
2023-02-13T04:11:08.324Z,6.60
2023-02-13T04:14:19.135Z,6.60
2023-02-13T04:17:26.032Z,6.50
2023-02-13T04:20:29.556Z,6.50
2023-02-13T04:23:32.510Z,6.60
2023-02-13T04:26:39.000Z,6.60
2023-02-13T04:29:41.938Z,6.50
2023-02-13T04:32:44.859Z,6.50
2023-02-13T04:35:47.890Z,6.50
2023-02-13T04:38:51.036Z,6.50
2023-02-13T04:41:55.298Z,6.40
2023-02-13T04:44:58.207Z,6.50
2023-02-13T04:48:01.110Z,6.40
2023-02-13T04:51:04.055Z,6.40
2023-02-13T04:54:06.980Z,6.50
2023-02-13T04:57:11.291Z,6.50
2023-02-13T05:00:14.977Z,6.50
2023-02-13T05:03:17.896Z,6.40
2023-02-13T05:06:20.825Z,6.40
2023-02-13T05:09:23.735Z,6.40
2023-02-13T05:12:28.072Z,6.40
2023-02-13T05:15:31.139Z,6.40
2023-02-13T05:18:34.060Z,6.50
2023-02-13T05:21:54.464Z,6.40
2023-02-13T05:24:57.421Z,6.40
2023-02-13T05:28:01.802Z,6.40
2023-02-13T05:31:04.040Z,6.40
2023-02-13T05:34:07.039Z,6.40
2023-02-13T05:37:09.943Z,6.40
2023-02-13T05:40:14.480Z,6.40
2023-02-13T05:43:19.230Z,6.40
2023-02-13T05:46:22.305Z,6.40
2023-02-13T05:49:25.306Z,6.30
2023-02-13T05:52:28.770Z,6.30
2023-02-13T05:55:31.664Z,6.30
2023-02-13T05:58:36.189Z,6.30
2023-02-13T06:01:39.247Z,6.30
2023-02-13T06:04:42.261Z,6.30
2023-02-13T06:07:45.160Z,6.30
2023-02-13T06:10:48.368Z,6.30
2023-02-13T06:13:52.669Z,6.30
2023-02-13T06:16:55.563Z,6.30
2023-02-13T06:19:58.435Z,6.30
2023-02-13T06:23:01.347Z,6.30
2023-02-13T06:26:05.026Z,6.30
2023-02-13T06:29:09.539Z,6.30
2023-02-13T06:32:12.445Z,6.30
2023-02-13T06:35:15.777Z,6.30
2023-02-13T06:38:19.674Z,6.30
2023-02-13T06:41:22.699Z,6.30
2023-02-13T06:44:26.970Z,6.30
2023-02-13T06:47:30.101Z,6.20
2023-02-13T06:50:33.094Z,6.30
2023-02-13T06:53:36.030Z,6.20
2023-02-13T06:56:38.971Z,6.20
2023-02-13T06:59:43.386Z,6.30
2023-02-13T07:02:47.830Z,6.30
2023-02-13T07:05:52.079Z,6.30
2023-02-13T07:08:59.236Z,6.30
2023-02-13T07:12:04.409Z,6.30
2023-02-13T07:15:09.581Z,6.30
2023-02-13T07:18:12.470Z,6.40
2023-02-13T07:21:15.543Z,6.40
2023-02-13T07:24:18.437Z,6.40
2023-02-13T07:27:21.362Z,6.30
2023-02-13T07:30:25.668Z,6.30
2023-02-13T07:33:28.590Z,6.20
2023-02-13T07:36:31.472Z,6.20
2023-02-13T07:39:34.393Z,6.20
2023-02-13T07:42:37.315Z,6.20
2023-02-13T07:45:41.566Z,6.30
2023-02-13T07:48:44.469Z,6.20
2023-02-13T07:51:47.344Z,6.20
2023-02-13T07:54:51.401Z,6.20
2023-02-13T07:57:54.356Z,6.20
2023-02-13T08:00:58.624Z,6.30
2023-02-13T08:04:01.576Z,6.30
2023-02-13T08:07:04.559Z,6.30
2023-02-13T08:10:27.544Z,6.40
2023-02-13T08:13:30.540Z,6.40
2023-02-13T08:16:34.901Z,6.40
2023-02-13T08:19:37.822Z,6.40
2023-02-13T08:22:41.376Z,6.40
2023-02-13T08:25:44.278Z,6.40
2023-02-13T08:28:47.196Z,6.40
2023-02-13T08:31:51.596Z,6.40
2023-02-13T08:34:54.624Z,6.40
2023-02-13T08:37:57.651Z,6.40
2023-02-13T08:41:00.576Z,6.40
2023-02-13T08:44:03.530Z,6.40
2023-02-13T08:47:07.892Z,6.50
2023-02-13T08:50:11.565Z,6.40
2023-02-13T08:53:14.970Z,6.30
2023-02-13T08:56:17.895Z,6.30
2023-02-13T08:59:20.975Z,6.40
2023-02-13T09:02:25.294Z,6.40
2023-02-13T09:05:28.942Z,6.40
2023-02-13T09:08:32.151Z,6.40
2023-02-13T09:11:35.196Z,6.40
2023-02-13T09:14:39.271Z,6.40
2023-02-13T09:17:43.526Z,6.40
2023-02-13T09:20:46.465Z,6.40
2023-02-13T09:23:49.480Z,6.40
2023-02-13T09:26:52.416Z,6.40
2023-02-13T09:29:55.326Z,6.40
2023-02-13T09:32:59.570Z,6.30
2023-02-13T09:36:06.337Z,6.40
2023-02-13T09:39:10.446Z,6.40
2023-02-13T09:42:20.635Z,6.40
2023-02-13T09:45:24.801Z,6.40
2023-02-13T09:48:32.163Z,6.50
2023-02-13T09:51:36.128Z,6.60
2023-02-13T09:54:39.134Z,6.60
2023-02-13T09:57:47.116Z,6.60
2023-02-13T10:00:54.883Z,6.60
2023-02-13T10:04:17.141Z,6.70
2023-02-13T10:07:28.048Z,6.60
2023-02-13T10:10:39.261Z,6.70
2023-02-13T10:13:54.210Z,6.80
2023-02-13T10:17:02.077Z,6.90
2023-02-13T10:20:09.542Z,6.90
2023-02-13T10:23:23.255Z,6.90
2023-02-13T10:26:42.649Z,6.80
2023-02-13T10:30:09.636Z,6.80
2023-02-13T10:33:21.532Z,6.80
2023-02-13T10:36:28.433Z,6.80
2023-02-13T10:39:32.622Z,6.80
2023-02-13T10:42:43.196Z,6.80
2023-02-13T10:45:54.222Z,6.90
2023-02-13T10:49:14.931Z,6.90
2023-02-13T10:52:34.279Z,6.90
2023-02-13T10:56:01.530Z,6.90
2023-02-13T10:59:32.205Z,6.80
2023-02-13T11:02:37.005Z,6.80
2023-02-13T11:05:41.408Z,6.90
2023-02-13T11:08:48.597Z,6.90
2023-02-13T11:11:51.990Z,6.80
2023-02-13T11:14:56.719Z,6.50
2023-02-13T11:18:16.332Z,6.70
2023-02-13T11:21:23.064Z,6.80
2023-02-13T11:24:28.976Z,6.90
2023-02-13T11:27:35.626Z,7.00
2023-02-13T11:30:40.255Z,7.00
2023-02-13T11:33:44.041Z,7.10
2023-02-13T11:36:46.990Z,7.10
2023-02-13T11:39:53.202Z,7.10
2023-02-13T11:42:56.265Z,7.10
2023-02-13T11:46:04.255Z,7.00
2023-02-13T11:49:16.516Z,7.10
2023-02-13T11:52:28.826Z,7.20
2023-02-13T11:55:35.899Z,7.20
2023-02-13T11:58:39.749Z,7.20
2023-02-13T12:01:42.937Z,7.30
2023-02-13T12:04:46.198Z,7.30
2023-02-13T12:07:49.991Z,7.20
2023-02-13T12:10:55.301Z,7.20
2023-02-13T12:13:59.110Z,7.30
2023-02-13T12:17:06.326Z,7.30
2023-02-13T12:20:14.583Z,7.40
2023-02-13T12:23:29.946Z,7.30
2023-02-13T12:26:39.567Z,7.30
2023-02-13T12:29:56.877Z,7.30
2023-02-13T12:33:16.607Z,7.30
2023-02-13T12:36:26.012Z,7.40
2023-02-13T12:39:34.201Z,7.50
2023-02-13T12:42:47.983Z,7.50
2023-02-13T12:45:57.475Z,7.60
2023-02-13T12:49:15.401Z,7.60
2023-02-13T12:52:29.878Z,7.60
2023-02-13T12:56:00.816Z,7.60
2023-02-13T12:59:12.262Z,7.60
2023-02-13T13:02:39.413Z,7.60
2023-02-13T13:06:11.056Z,7.60
2023-02-13T13:09:50.910Z,7.60
2023-02-13T13:13:03.504Z,7.60
2023-02-13T13:16:16.821Z,7.60
2023-02-13T13:19:28.648Z,7.60
2023-02-13T13:22:36.186Z,7.60
2023-02-13T13:25:49.349Z,7.60
2023-02-13T13:28:54.597Z,7.70
2023-02-13T13:32:03.164Z,7.70
2023-02-13T13:35:07.198Z,7.70
2023-02-13T13:38:17.527Z,7.70
2023-02-13T13:41:29.615Z,7.70
2023-02-13T13:45:05.282Z,7.80
2023-02-13T13:49:02.228Z,7.80
2023-02-13T13:52:21.656Z,7.70
2023-02-13T13:55:58.399Z,7.70
2023-02-13T13:59:01.680Z,7.70
2023-02-13T14:02:37.496Z,7.70
2023-02-13T14:05:59.448Z,7.60
2023-02-13T14:09:26.213Z,7.70
2023-02-13T14:12:39.816Z,7.60
2023-02-13T14:15:56.822Z,7.60
2023-02-13T14:19:00.104Z,7.70
2023-02-13T14:22:29.868Z,7.60
2023-02-13T14:25:34.518Z,7.60
2023-02-13T14:28:38.075Z,7.50
2023-02-13T14:31:43.284Z,7.60
2023-02-13T14:34:54.447Z,7.60
2023-02-13T14:38:00.419Z,7.50
2023-02-13T14:41:07.336Z,7.50
2023-02-13T14:44:19.282Z,7.50
2023-02-13T14:47:26.185Z,7.50
2023-02-13T14:50:31.549Z,7.50
2023-02-13T14:53:47.573Z,7.50
2023-02-13T14:56:54.486Z,7.40
2023-02-13T15:00:00.146Z,7.30
2023-02-13T15:03:06.892Z,7.30
2023-02-13T15:06:15.684Z,7.40
2023-02-13T15:09:29.879Z,7.40
2023-02-13T15:12:35.884Z,7.30
2023-02-13T15:15:39.042Z,7.40
2023-02-13T15:18:45.673Z,7.20
2023-02-13T15:21:54.535Z,7.20
2023-02-13T15:24:59.060Z,7.20
2023-02-13T15:28:05.325Z,7.20
2023-02-13T15:31:22.431Z,7.30
2023-02-13T15:34:28.936Z,7.30
2023-02-13T15:37:32.271Z,7.20
2023-02-13T15:40:41.048Z,7.10
2023-02-13T15:43:47.879Z,7.20
2023-02-13T15:46:52.616Z,7.20
2023-02-13T15:49:55.914Z,7.20
2023-02-13T15:53:00.028Z,7.20
2023-02-13T15:56:05.869Z,7.20
2023-02-13T15:59:11.451Z,7.20
2023-02-13T16:02:19.483Z,7.20
2023-02-13T16:05:38.592Z,7.20
2023-02-13T16:08:46.423Z,7.10
2023-02-13T16:11:49.463Z,7.10
2023-02-13T16:14:57.307Z,7.10
2023-02-13T16:18:00.541Z,7.10
2023-02-13T16:21:07.822Z,7.10
2023-02-13T16:24:16.517Z,7.20
2023-02-13T16:27:21.761Z,7.20
2023-02-13T16:30:33.412Z,7.10
2023-02-13T16:33:39.167Z,7.10
2023-02-13T16:36:42.139Z,7.10
2023-02-13T16:39:45.093Z,7.00
2023-02-13T16:42:48.053Z,7.00
2023-02-13T16:45:52.407Z,7.00
2023-02-13T16:49:18.437Z,6.90
2023-02-13T16:52:26.440Z,6.90
2023-02-13T16:55:31.662Z,6.90
2023-02-13T16:58:34.649Z,6.90
2023-02-13T17:01:38.905Z,6.90
2023-02-13T17:04:44.357Z,6.90
2023-02-13T17:07:49.167Z,6.90
2023-02-13T17:11:04.368Z,6.90
2023-02-13T17:14:07.297Z,6.90
2023-02-13T17:17:17.297Z,6.90
2023-02-13T17:20:23.235Z,6.90
2023-02-13T17:23:26.514Z,6.90
2023-02-13T17:26:29.462Z,6.90
2023-02-13T17:29:32.352Z,6.90
2023-02-13T17:32:37.675Z,6.90
2023-02-13T17:35:40.656Z,6.80
2023-02-13T17:38:43.544Z,6.80
2023-02-13T17:41:46.567Z,6.90
2023-02-13T17:44:49.564Z,6.90
2023-02-13T17:47:54.181Z,6.80
2023-02-13T17:50:57.453Z,6.90
2023-02-13T17:54:00.726Z,6.80
2023-02-13T17:57:03.682Z,6.80
2023-02-13T18:00:08.923Z,6.80
2023-02-13T18:03:13.746Z,6.80
2023-02-13T18:06:16.639Z,6.90
2023-02-13T18:09:19.547Z,6.80
2023-02-13T18:12:24.901Z,6.80
2023-02-13T18:15:29.832Z,6.70
2023-02-13T18:18:34.871Z,6.70
2023-02-13T18:21:37.833Z,6.80
2023-02-13T18:24:42.699Z,6.80
2023-02-13T18:27:46.102Z,6.70
2023-02-13T18:30:49.047Z,6.80
2023-02-13T18:33:53.359Z,6.80
2023-02-13T18:36:56.281Z,6.80
2023-02-13T18:39:59.230Z,6.80
2023-02-13T18:43:02.111Z,6.80
2023-02-13T18:46:05.762Z,6.70
2023-02-13T18:49:10.899Z,6.70
2023-02-13T18:52:13.813Z,6.70
2023-02-13T18:55:17.004Z,6.80
2023-02-13T18:58:19.896Z,6.80
2023-02-13T19:01:24.015Z,6.80
2023-02-13T19:04:28.296Z,6.80
2023-02-13T19:07:31.209Z,6.80
2023-02-13T19:10:34.092Z,6.80
2023-02-13T19:13:37.266Z,6.80
2023-02-13T19:16:40.139Z,6.80
2023-02-13T19:19:46.218Z,6.70
2023-02-13T19:22:49.107Z,6.70
2023-02-13T19:25:52.006Z,6.70
2023-02-13T19:28:55.088Z,6.70
2023-02-13T19:31:58.051Z,6.80
2023-02-13T19:35:02.658Z,6.80
2023-02-13T19:38:06.668Z,6.70
2023-02-13T19:41:11.203Z,6.70
2023-02-13T19:44:14.640Z,6.70
2023-02-13T19:47:17.512Z,6.70
2023-02-13T19:50:22.408Z,6.60
2023-02-13T19:53:25.292Z,6.70
2023-02-13T19:56:29.336Z,6.70
2023-02-13T19:59:33.048Z,6.70
2023-02-13T20:02:37.949Z,6.70
2023-02-13T20:05:43.840Z,6.70
2023-02-13T20:08:46.789Z,6.70
2023-02-13T20:11:50.674Z,6.60
2023-02-13T20:14:55.649Z,6.60
2023-02-13T20:17:58.663Z,6.60
2023-02-13T20:21:06.186Z,6.50
2023-02-13T20:24:10.116Z,6.50
2023-02-13T20:27:13.150Z,6.50
2023-02-13T20:30:17.593Z,6.50
2023-02-13T20:33:20.821Z,6.50
2023-02-13T20:36:26.728Z,6.50
2023-02-13T20:39:29.989Z,6.50
2023-02-13T20:42:34.370Z,6.40
2023-02-13T20:45:37.337Z,6.50
2023-02-13T20:48:41.450Z,6.40
2023-02-13T20:51:45.941Z,6.40
2023-02-13T20:54:48.869Z,6.30
2023-02-13T20:57:51.736Z,6.40
2023-02-13T21:00:54.655Z,6.40
2023-02-13T21:03:57.980Z,6.30
2023-02-13T21:07:03.506Z,6.30
2023-02-13T21:10:07.614Z,6.30
2023-02-13T21:13:10.836Z,6.20
2023-02-13T21:16:16.074Z,6.30
2023-02-13T21:19:23.092Z,6.30
2023-02-13T21:22:27.379Z,6.20
2023-02-13T21:25:30.272Z,6.20
2023-02-13T21:28:33.786Z,6.20
2023-02-13T21:31:39.145Z,6.10
2023-02-13T21:34:43.259Z,6.10
2023-02-13T21:37:47.513Z,6.00
2023-02-13T21:40:50.414Z,6.10
2023-02-13T21:43:53.364Z,6.10
2023-02-13T21:46:56.394Z,6.10
2023-02-13T21:49:59.476Z,6.10
2023-02-13T21:53:03.711Z,6.00
2023-02-13T21:56:09.065Z,6.00
2023-02-13T21:59:15.678Z,6.00
2023-02-13T22:02:18.865Z,6.00
2023-02-13T22:05:21.894Z,6.00
2023-02-13T22:08:26.226Z,6.00
2023-02-13T22:11:29.968Z,6.00
2023-02-13T22:14:32.945Z,6.00
2023-02-13T22:17:37.557Z,5.90
2023-02-13T22:20:40.887Z,5.90
2023-02-13T22:23:46.572Z,5.80
2023-02-13T22:26:49.639Z,5.70
2023-02-13T22:29:52.888Z,5.80
2023-02-13T22:32:57.212Z,5.80
2023-02-13T22:36:01.889Z,5.70
2023-02-13T22:39:06.934Z,5.70
2023-02-13T22:42:09.967Z,5.60
2023-02-13T22:45:12.844Z,5.50
2023-02-13T22:48:15.709Z,5.50
2023-02-13T22:51:20.598Z,5.50
2023-02-13T22:54:24.884Z,5.50
2023-02-13T22:57:27.770Z,5.50
2023-02-13T23:00:30.672Z,5.40
2023-02-13T23:03:33.893Z,5.40
2023-02-13T23:06:36.767Z,5.40
2023-02-13T23:09:41.481Z,5.50
2023-02-13T23:12:46.176Z,5.50
2023-02-13T23:15:51.614Z,5.40
2023-02-13T23:18:55.182Z,5.20
2023-02-13T23:21:58.084Z,5.30
2023-02-13T23:25:05.181Z,5.20
2023-02-13T23:28:08.317Z,5.20
2023-02-13T23:31:11.601Z,5.20
2023-02-13T23:34:14.561Z,5.20
2023-02-13T23:37:17.470Z,5.20
2023-02-13T23:40:22.461Z,5.20
2023-02-13T23:43:25.321Z,5.20
2023-02-13T23:46:28.273Z,5.20
2023-02-13T23:49:31.632Z,5.10
2023-02-13T23:52:34.510Z,5.20
2023-02-13T23:55:38.745Z,5.20
2023-02-13T23:58:41.643Z,5.20
